Flight Track Log - Related Links

Times and Time Zones

All times are in EDT time to prevent confusion due to time zone crossing. See the PH-AOH flight status page for this flight to view local times or setup timezone preferences in your user account.

Time Position Orientation Groundspeed Altitude Reporting Facility
EDT Latitude Longitude Course Direction KTS MPH feet Rate Location/Type
Fri 05:12:00 PM 8.7389 3.3682 North  Level Estimated
Fri 05:13:00 PM 8.8527 3.3707 North  Level Estimated
Fri 05:14:00 PM 8.9664 3.3731 North  Level Estimated
Fri 05:15:00 PM 9.0802 3.3756 North  Level Estimated
Fri 05:16:00 PM 9.1939 3.3781 North  Level Estimated
Fri 05:17:00 PM 9.3077 3.3806 North  Level Estimated
Fri 05:18:00 PM 9.4215 3.3831 North  Level Estimated
Fri 05:19:00 PM 9.5352 3.3856 North  Level Estimated
Fri 05:20:00 PM 9.6490 3.3881 North  Level Estimated
Fri 05:21:00 PM 9.7627 3.3906 North  Level Estimated
Fri 05:22:00 PM 9.8765 3.3931 North  Level Estimated
Fri 05:23:00 PM 9.9903 3.3956 North  Level Estimated
Fri 05:24:00 PM 10.1040 3.3981 North  Level Estimated
Fri 05:25:00 PM 10.2178 3.4006 North  Level Estimated
Fri 05:26:00 PM 10.3315 3.4031 North  Level Estimated
Fri 05:27:00 PM 10.4453 3.4056 North  Level Estimated
Fri 05:28:00 PM 10.5591 3.4082 North  Level Estimated
Fri 05:29:00 PM 10.6728 3.4107 North  Level Estimated
Fri 05:30:00 PM 10.7866 3.4132 North  Level Estimated
Fri 05:31:00 PM 10.9003 3.4157 North  Level Estimated
Fri 05:32:00 PM 11.0141 3.4182 North  Level Estimated
Fri 05:33:00 PM 11.1279 3.4207 North  Level Estimated
Fri 05:34:00 PM 11.2416 3.4233 North  Level Estimated
Fri 05:35:00 PM 11.3554 3.4258 North  Level Estimated
Fri 05:36:00 PM 11.4691 3.4283 North  Level Estimated
Fri 05:37:00 PM 11.5829 3.4309 North  Level Estimated
Fri 05:38:00 PM 11.6967 3.4334 North  Level Estimated
Fri 05:39:00 PM 11.8104 3.4359 North  Level Estimated
Fri 05:40:00 PM 11.9242 3.4385 North  Level Estimated
Fri 05:41:00 PM 12.0379 3.4410 North  Level Estimated
Fri 05:42:00 PM 12.1517 3.4435 North  Level Estimated
Fri 05:43:00 PM 12.2655 3.4461 North  Level Estimated
Fri 05:44:00 PM 12.3792 3.4486 North  Level Estimated
Fri 05:45:00 PM 12.4930 3.4512 North  Level Estimated
Fri 05:46:00 PM 12.6067 3.4537 North  Level Estimated
Fri 05:47:00 PM 12.7205 3.4563 North  Level Estimated
Fri 05:48:00 PM 12.8343 3.4588 North  Level Estimated
Fri 05:49:00 PM 12.9480 3.4614 North  Level Estimated
Fri 05:50:00 PM 13.0618 3.4639 North  Level Estimated
Fri 05:51:00 PM 13.1755 3.4665 North  Level Estimated
Fri 05:52:00 PM 13.2893 3.4691 North  Level Estimated
Fri 05:53:00 PM 13.4031 3.4716 North  Level Estimated
Fri 05:54:00 PM 13.5168 3.4742 North  Level Estimated
Fri 05:55:00 PM 13.6306 3.4768 North  Level Estimated
Fri 05:56:00 PM 13.7443 3.4794 North  Level Estimated
Fri 05:57:00 PM 13.8634 3.4820 North  Level Estimated
Fri 05:58:00 PM 13.9825 3.4848 North  Level Estimated
Fri 05:59:00 PM 14.1016 3.4874 North  Level Estimated
Fri 06:00:00 PM 14.2207 3.4902 North  Level Estimated
Fri 06:01:00 PM 14.3398 3.4929 North  Level Estimated
Fri 06:02:00 PM 14.4589 3.4956 North  Level Estimated
Fri 06:03:00 PM 14.5780 3.4983 North  Level Estimated
Fri 06:04:00 PM 14.6971 3.5010 North  Level Estimated
Fri 06:05:00 PM 14.8162 3.5037 North  Level Estimated
Fri 06:06:00 PM 14.9353 3.5064 North  Level Estimated
Fri 06:07:00 PM 15.0544 3.5092 North  Level Estimated
Fri 06:08:00 PM 15.1735 3.5119 North  Level Estimated
Fri 06:09:00 PM 15.2926 3.5146 North  Level Estimated
Fri 06:10:00 PM 15.4117 3.5174 North  Level Estimated
Fri 06:11:00 PM 15.5308 3.5201 North  Level Estimated
Fri 06:12:00 PM 15.6499 3.5229 North  Level Estimated
Fri 06:13:00 PM 15.7690 3.5256 North  Level Estimated
Fri 06:14:00 PM 15.8881 3.5284 North  Level Estimated
Fri 06:15:00 PM 16.0072 3.5311 North  Level Estimated
Fri 06:16:00 PM 16.1263 3.5338 North  Level Estimated
Fri 06:17:00 PM 16.2454 3.5366 North  Level Estimated
Fri 06:18:00 PM 16.3645 3.5394 North  Level Estimated
Fri 06:19:00 PM 16.4836 3.5421 North  Level Estimated
Fri 06:20:00 PM 16.6027 3.5449 North  Level Estimated
Fri 06:21:00 PM 16.7218 3.5477 North  Level Estimated
Fri 06:22:00 PM 16.8409 3.5504 North  Level Estimated
Fri 06:23:00 PM 16.9600 3.5532 North  Level Estimated
Fri 06:24:00 PM 17.0791 3.5560 North  Level Estimated
Fri 06:25:00 PM 17.1982 3.5588 North  Level Estimated
Fri 06:26:00 PM 17.3173 3.5616 North  Level Estimated
Fri 06:27:00 PM 17.4364 3.5644 North  Level Estimated
Fri 06:28:00 PM 17.5555 3.5672 North  Level Estimated
Fri 06:29:00 PM 17.6746 3.5700 North  Level Estimated
Fri 06:30:00 PM 17.7937 3.5728 North  Level Estimated
Fri 06:31:00 PM 17.9128 3.5756 North  Level Estimated
Fri 06:32:00 PM 18.0319 3.5784 North  Level Estimated
Fri 06:33:00 PM 18.1510 3.5812 North  Level Estimated
Fri 06:34:00 PM 18.2701 3.5840 North  Level Estimated
Fri 06:35:00 PM 18.3892 3.5868 North  Level Estimated
Fri 06:36:00 PM 18.5083 3.5897 North  Level Estimated
Fri 06:37:00 PM 18.6274 3.5925 North  Level Estimated
Fri 06:38:00 PM 18.7465 3.5953 North  Level Estimated
Fri 06:39:00 PM 18.8656 3.5982 North  Level Estimated
Fri 06:40:00 PM 18.9847 3.6010 North  Level Estimated
Fri 06:41:00 PM 19.1038 3.6039 North  Level Estimated
Fri 06:42:00 PM 19.2229 3.6067 North  Level Estimated
Fri 06:43:00 PM 19.3420 3.6096 North  Level Estimated
Fri 06:44:00 PM 19.4611 3.6124 North  Level Estimated
Fri 06:45:00 PM 19.5802 3.6153 North  Level Estimated
Fri 06:46:00 PM 19.6992 3.6181 North  Level Estimated
Fri 06:47:00 PM 19.8183 3.6210 North  Level Estimated
Fri 06:48:00 PM 19.9374 3.6239 North  Level Estimated
Fri 06:49:00 PM 20.0565 3.6268 North  Level Estimated
Fri 06:50:00 PM 20.1756 3.6297 North  Level Estimated
Fri 06:51:00 PM 20.2947 3.6326 North  Level Estimated
Fri 06:52:00 PM 20.4138 3.6354 North  Level Estimated
Fri 06:53:00 PM 20.5329 3.6383 North  Level Estimated
Fri 06:54:00 PM 20.6520 3.6412 North  Level Estimated
Fri 06:55:00 PM 20.7711 3.6442 North  Level Estimated
Fri 06:56:00 PM 20.8902 3.6471 North  Level Estimated
Fri 06:57:00 PM 21.0092 3.6500 North  Level Estimated
Fri 06:58:00 PM 21.1283 3.6529 North  Level Estimated
Fri 06:59:00 PM 21.2474 3.6558 North  Level Estimated
Fri 07:00:00 PM 21.3665 3.6588 North  Level Estimated
Fri 07:01:00 PM 21.4856 3.6617 North  Level Estimated
Fri 07:02:00 PM 21.6047 3.6646 North  Level Estimated
Fri 07:03:00 PM 21.7238 3.6676 North  Level Estimated
Fri 07:04:00 PM 21.8429 3.6705 North  Level Estimated
Fri 07:05:00 PM 21.9620 3.6735 North  Level Estimated
Fri 07:06:00 PM 22.0811 3.6764 North  Level Estimated
Fri 07:07:00 PM 22.2001 3.6794 North  Level Estimated
Fri 07:08:00 PM 22.3192 3.6824 North  Level Estimated
Fri 07:09:00 PM 22.4383 3.6853 North  Level Estimated
Fri 07:10:00 PM 22.5574 3.6883 North  Level Estimated
Fri 07:11:00 PM 22.6765 3.6913 North  Level Estimated
Fri 07:12:00 PM 22.7956 3.6943 North  Level Estimated
Fri 07:13:00 PM 22.9147 3.6973 North  Level Estimated
Fri 07:14:00 PM 23.0338 3.7003 North  Level Estimated
Fri 07:15:00 PM 23.1529 3.7033 North  Level Estimated
Fri 07:16:00 PM 23.2719 3.7063 North  Level Estimated
Fri 07:17:00 PM 23.3910 3.7093 North  Level Estimated
Fri 07:18:00 PM 23.5101 3.7123 North  Level Estimated
Fri 07:19:00 PM 23.6292 3.7154 North  Level Estimated
Fri 07:20:00 PM 23.7483 3.7184 North  Level Estimated
Fri 07:21:00 PM 23.8674 3.7215 North  Level Estimated
Fri 07:22:00 PM 23.9865 3.7245 North  Level Estimated
Fri 07:23:00 PM 24.1056 3.7275 North  Level Estimated
Fri 07:24:00 PM 24.2247 3.7306 North  Level Estimated
Fri 07:25:00 PM 24.3438 3.7337 North  Level Estimated
Fri 07:26:00 PM 24.4629 3.7367 North  Level Estimated
Fri 07:27:00 PM 24.5819 3.7398 North  Level Estimated
Fri 07:28:00 PM 24.7010 3.7429 North  Level Estimated
Fri 07:29:00 PM 24.8201 3.7460 North  Level Estimated
Fri 07:30:00 PM 24.9392 3.7490 North  Level Estimated
Fri 07:31:00 PM 25.0583 3.7522 North  Level Estimated
Fri 07:32:00 PM 25.1774 3.7552 North  Level Estimated
Fri 07:33:00 PM 25.2965 3.7584 North  Level Estimated
Fri 07:34:00 PM 25.4156 3.7615 North  Level Estimated
Fri 07:35:00 PM 25.5347 3.7646 North  Level Estimated
Fri 07:36:00 PM 25.6537 3.7677 North  Level Estimated
Fri 07:37:00 PM 25.7728 3.7708 North  Level Estimated
Fri 07:38:00 PM 25.8919 3.7740 North  Level Estimated
Fri 07:39:00 PM 26.0110 3.7771 North  Level Estimated
Fri 07:40:00 PM 26.1301 3.7803 North  Level Estimated
Fri 07:41:00 PM 26.2492 3.7834 North  Level Estimated
Fri 07:42:00 PM 26.3683 3.7866 North  Level Estimated
Fri 07:43:00 PM 26.4874 3.7898 North  Level Estimated
Fri 07:44:00 PM 26.6065 3.7930 North  Level Estimated
Fri 07:45:00 PM 26.7256 3.7961 North  Level Estimated
Fri 07:46:00 PM 26.8447 3.7993 North  Level Estimated
Fri 07:47:00 PM 26.9637 3.8025 North  Level Estimated
Fri 07:48:00 PM 27.0828 3.8057 North  Level Estimated
Fri 07:49:00 PM 27.2019 3.8090 North  Level Estimated
Fri 07:50:00 PM 27.3210 3.8122 North  Level Estimated
Fri 07:51:00 PM 27.4401 3.8154 North  Level Estimated
Fri 07:52:00 PM 27.5592 3.8186 North  Level Estimated
Fri 07:53:00 PM 27.6783 3.8219 North  Level Estimated
Fri 07:54:00 PM 27.7974 3.8251 North  Level Estimated
Fri 07:55:00 PM 27.9165 3.8284 North  Level Estimated
Fri 07:56:00 PM 28.0355 3.8316 North  Level Estimated
Fri 07:57:00 PM 28.1546 3.8349 North  Level Estimated
Fri 07:58:00 PM 28.2737 3.8382 North  Level Estimated
Fri 07:59:00 PM 28.3928 3.8415 North  Level Estimated
Fri 08:00:00 PM 28.5119 3.8448 North  Level Estimated
Fri 08:01:00 PM 28.6310 3.8481 North  Level Estimated
Fri 08:02:00 PM 28.7501 3.8514 North  Level Estimated
Fri 08:03:00 PM 28.8692 3.8547 North  Level Estimated
Fri 08:04:00 PM 28.9883 3.8580 North  Level Estimated
Fri 08:05:00 PM 29.1074 3.8613 North  Level Estimated
Fri 08:06:00 PM 29.2264 3.8647 North  Level Estimated
Fri 08:07:00 PM 29.3455 3.8680 North  Level Estimated
Fri 08:08:00 PM 29.4646 3.8714 North  Level Estimated
Fri 08:09:00 PM 29.5837 3.8747 North  Level Estimated
Fri 08:10:00 PM 29.7028 3.8781 North  Level Estimated
Fri 08:11:00 PM 29.8219 3.8815 North  Level Estimated
Fri 08:12:00 PM 29.9410 3.8849 North  Level Estimated
Fri 08:13:00 PM 30.0601 3.8882 North  Level Estimated
Fri 08:14:00 PM 30.1792 3.8916 North  Level Estimated
Fri 08:15:00 PM 30.2983 3.8951 North  Level Estimated
Fri 08:16:00 PM 30.4174 3.8985 North  Level Estimated
Fri 08:17:00 PM 30.5364 3.9019 North  Level Estimated
Fri 08:18:00 PM 30.6555 3.9053 North  Level Estimated
Fri 08:19:00 PM 30.7746 3.9088 North  Level Estimated
Fri 08:20:00 PM 30.8937 3.9122 North  Level Estimated
Fri 08:21:00 PM 31.0128 3.9157 North  Level Estimated
Fri 08:22:00 PM 31.1319 3.9191 North  Level Estimated
Fri 08:23:00 PM 31.2510 3.9226 North  Level Estimated
Fri 08:24:00 PM 31.3701 3.9261 North  Level Estimated
Fri 08:25:00 PM 31.4892 3.9296 North  Level Estimated
Fri 08:26:00 PM 31.6082 3.9331 North  Level Estimated
Fri 08:27:00 PM 31.7273 3.9366 North  Level Estimated
Fri 08:28:00 PM 31.8464 3.9401 North  Level Estimated
Fri 08:29:00 PM 31.9655 3.9437 North  Level Estimated
Fri 08:30:00 PM 32.0846 3.9472 North  Level Estimated
Fri 08:31:00 PM 32.2037 3.9507 North  Level Estimated
Fri 08:32:00 PM 32.3228 3.9543 North  Level Estimated
Fri 08:33:00 PM 32.4419 3.9579 North  Level Estimated
Fri 08:34:00 PM 32.5610 3.9615 North  Level Estimated
Fri 08:35:00 PM 32.6801 3.9650 North  Level Estimated
Fri 08:36:00 PM 32.7991 3.9686 North  Level Estimated
Fri 08:37:00 PM 32.9182 3.9722 North  Level Estimated
Fri 08:38:00 PM 33.0373 3.9758 North  Level Estimated
Fri 08:39:00 PM 33.1564 3.9795 North  Level Estimated
Fri 08:40:00 PM 33.2755 3.9831 North  Level Estimated
Fri 08:41:00 PM 33.3946 3.9867 North  Level Estimated
Fri 08:42:00 PM 33.5137 3.9904 North  Level Estimated
Fri 08:43:00 PM 33.6328 3.9940 North  Level Estimated
Fri 08:44:00 PM 33.7519 3.9977 North  Level Estimated
Fri 08:45:00 PM 33.8710 4.0014 North  Level Estimated
Fri 08:46:00 PM 33.9901 4.0051 North  Level Estimated
Fri 08:47:00 PM 34.1091 4.0088 North  Level Estimated
Fri 08:48:00 PM 34.2282 4.0125 North  Level Estimated
Fri 08:49:00 PM 34.3473 4.0162 North  Level Estimated
Fri 08:50:00 PM 34.4664 4.0200 North  Level Estimated
Fri 08:51:00 PM 34.5855 4.0237 North  Level Estimated
Fri 08:52:00 PM 34.7046 4.0275 North  Level Estimated
Fri 08:53:00 PM 34.8237 4.0312 North  Level Estimated
Fri 08:54:00 PM 34.9428 4.0350 North  Level Estimated
Fri 08:55:00 PM 35.0618 4.0388 North  Level Estimated
Fri 08:56:00 PM 35.1809 4.0426 North  Level Estimated
Fri 08:57:00 PM 35.3000 4.0464 North  Level Estimated
Fri 08:58:00 PM 35.4191 4.0503 North  Level Estimated
Fri 08:59:00 PM 35.5382 4.0541 North  Level Estimated
Fri 09:00:00 PM 35.6572 4.0579 North  Level Estimated
Fri 09:01:00 PM 35.7763 4.0618 North  Level Estimated
Fri 09:02:00 PM 35.8954 4.0657 North  Level Estimated
Fri 09:03:00 PM 36.0145 4.0696 North  Level Estimated
Fri 09:04:00 PM 36.1336 4.0734 North  Level Estimated
Fri 09:05:00 PM 36.2526 4.0774 North  Level Estimated
Fri 09:06:00 PM 36.3717 4.0813 North  Level Estimated
Fri 09:07:00 PM 36.4908 4.0852 North  Level Estimated
Fri 09:08:00 PM 36.6099 4.0891 North  Level Estimated
Fri 09:09:00 PM 36.7290 4.0931 North  Level Estimated
Fri 09:10:00 PM 36.8480 4.0971 North  Level Estimated
Fri 09:11:00 PM 36.9671 4.1010 North  Level Estimated
Fri 09:12:00 PM 37.0862 4.1050 North  Level Estimated
Fri 09:13:00 PM 37.2053 4.1090 North  Level Estimated
Fri 09:14:00 PM 37.3244 4.1130 North  Level Estimated
Fri 09:14:46 PM 38.0190 6.2090 North 449 517 40,000  Level FlightAware ADS-B
Fri 09:15:00 PM 37.4434 4.1171 North  Level Estimated
Fri 09:15:26 PM 38.1040 6.1990 355° North 450 518 40,000  Level FlightAware ADS-B
Fri 09:16:11 PM 38.1990 6.1880 355° North 456 525 40,000  Level FlightAware ADS-B
Fri 09:17:01 PM 38.2950 6.1750 354° North 456 525 40,000  Level FlightAware ADS-B
Fri 09:17:41 PM 38.3660 6.1660 354° North 456 525 40,000  Level FlightAware ADS-B
Fri 09:18:31 PM 38.4550 6.1540 354° North 456 525 40,000  Level FlightAware ADS-B
Fri 09:19:11 PM 38.5820 6.1410 355° North 451 519 40,000  Level FlightAware ADS-B
Fri 09:19:51 PM 38.6660 6.1300 354° North 456 525 40,000  Level FlightAware ADS-B
Fri 09:20:36 PM 38.7610 6.1180 354° North 452 520 40,000  Level FlightAware ADS-B
Fri 09:21:16 PM 38.8410 6.1000 350° North 438 504 40,000  Level FlightAware ADS-B
Fri 09:22:01 PM 38.9320 6.0790 350° North 439 505 40,000  Level FlightAware ADS-B
Fri 09:22:41 PM 39.0150 6.0610 350° North 438 504 40,000  Level FlightAware ADS-B
Fri 09:23:11 PM 39.0750 6.0490 351° North 438 504 40,000  Level FlightAware ADS-B
Fri 09:23:51 PM 39.1570 6.0310 350° North 439 505 40,000  Level FlightAware ADS-B
Fri 09:24:31 PM 39.2380 6.0140 351° North 440 506 40,000  Level FlightAware ADS-B
Fri 09:25:16 PM 39.3320 5.9940 351° North 441 507 40,000  Level FlightAware ADS-B
Fri 09:25:56 PM 39.4120 5.9770 351° North 440 506 40,000  Level FlightAware ADS-B
Fri 09:26:36 PM 39.4940 5.9590 350° North 438 504 40,000  Level FlightAware ADS-B
Fri 09:27:21 PM 39.5850 5.9400 351° North 438 504 40,000  Level FlightAware ADS-B
Fri 09:29:00 PM 39.7812 5.9255 357° North  Level Estimated
Fri 09:29:11 PM 39.8050 5.8920 357° North 454 522 40,000  Level FlightAware ADS-B
Fri 09:31:00 PM 40.0211 5.8763 357° North  Level Estimated
Fri 09:32:00 PM 40.1400 5.8677 357° North  Level Estimated
Fri 09:33:00 PM 40.2590 5.8589 357° North  Level Estimated
Fri 09:33:26 PM 40.3390 5.7750 357° North 457 526 40,000  Level FlightAware ADS-B
Fri 09:34:06 PM 40.4220 5.7570 351° North 457 526 40,000  Level FlightAware ADS-B
Fri 09:34:46 PM 40.5030 5.7390 350° North 455 524 40,000  Level FlightAware ADS-B
Fri 09:35:41 PM 40.6180 5.7130 350° North 454 522 40,000  Level FlightAware ADS-B
Fri 09:36:26 PM 40.7150 5.6920 351° North 455 524 40,000  Level FlightAware ADS-B
Fri 09:37:11 PM 40.8120 5.6700 350° North 456 525 40,000  Level FlightAware ADS-B
Fri 09:37:51 PM 40.8940 5.6520 351° North 458 527 40,000  Level FlightAware ADS-B
Fri 09:38:31 PM 40.9780 5.6330 350° North 457 526 40,000  Level FlightAware ADS-B
Fri 09:39:16 PM 41.0680 5.6130 350° North 455 524 40,000  Level FlightAware ADS-B
Fri 09:39:56 PM 41.1530 5.5940 350° North 452 520 40,000  Level FlightAware ADS-B
Fri 09:40:36 PM 41.2360 5.5750 350° North 454 522 40,000  Level FlightAware ADS-B
Fri 09:41:21 PM 41.3310 5.5530 350° North 453 521 40,000  Level FlightAware ADS-B
Fri 09:42:01 PM 41.4140 5.5340 350° North 451 519 40,000  Level FlightAware ADS-B
Fri 09:42:46 PM 41.5030 5.5140 350° North 450 518 40,000  Level FlightAware ADS-B
Fri 09:43:26 PM 41.5860 5.4950 350° North 450 518 40,000  Level FlightAware ADS-B
Fri 09:44:11 PM 41.6790 5.4730 350° North 454 522 40,000  Level FlightAware ADS-B
Fri 09:44:51 PM 41.7630 5.4540 350° North 455 524 40,000  Level FlightAware ADS-B
Fri 09:45:31 PM 41.8460 5.4350 350° North 456 525 40,000  Level FlightAware ADS-B
Fri 09:46:16 PM 41.9380 5.4140 350° North 459 528 40,000  Level FlightAware ADS-B
Fri 09:47:11 PM 42.0550 5.3860 350° North 462 532 40,000  Level FlightAware ADS-B
Fri 09:47:46 PM 42.1240 5.3700 350° North 461 531 40,000  Level FlightAware ADS-B
Fri 09:48:31 PM 42.2240 5.3470 350° North 458 527 40,000  Level FlightAware ADS-B
Fri 09:49:16 PM 42.3130 5.3260 350° North 458 527 40,000  Level FlightAware ADS-B
Fri 09:50:11 PM 42.4220 5.2990 350° North 459 528 40,000  Level FlightAware ADS-B
Fri 09:50:51 PM 42.4930 5.2800 349° North 459 528 40,000  Level FlightAware ADS-B
Fri 09:51:31 PM 42.5980 5.2590 352° North 460 529 40,000  Level FlightAware ADS-B
Fri 09:52:16 PM 42.6800 5.2390 350° North 460 529 40,000  Level FlightAware ADS-B
Fri 09:52:56 PM 42.7510 5.2220 350° North 460 529 40,000  Level FlightAware ADS-B
Fri 09:53:36 PM 42.8220 5.2050 350° North 460 529 40,000  Level FlightAware ADS-B
Fri 09:54:16 PM 42.8940 5.1880 350° North 460 529 40,000  Level FlightAware ADS-B
Fri 09:55:06 PM 43.0460 5.1520 350° North 457 526 40,000  Level FlightAware ADS-B
Fri 09:55:46 PM 43.1270 5.1330 350° North 457 526 40,000  Level FlightAware ADS-B
Fri 09:56:31 PM 43.2210 5.1100 350° North 455 524 40,000  Level FlightAware ADS-B
Fri 09:57:11 PM 43.3020 5.0900 350° North 455 524 40,000  Level FlightAware ADS-B
Fri 09:57:51 PM 43.3870 5.0700 350° North 457 526 40,000  Level FlightAware ADS-B
Fri 09:58:41 PM 43.4920 5.0440 350° North 458 527 40,000  Level FlightAware ADS-B
Fri 09:59:21 PM 43.5730 5.0240 350° North 457 526 40,000  Level FlightAware ADS-B
Fri 10:00:01 PM 43.6560 5.0040 350° North 458 527 40,000  Level FlightAware ADS-B
Fri 10:00:46 PM 43.7500 4.9810 350° North 455 524 40,000  Level FlightAware ADS-B
Fri 10:01:26 PM 43.8310 4.9610 350° North 454 522 40,000  Level FlightAware ADS-B
Fri 10:02:06 PM 43.9160 4.9400 350° North 445 512 40,000  Level FlightAware ADS-B
Fri 10:02:51 PM 44.0080 4.9170 350° North 444 511 40,000  Level FlightAware ADS-B
Fri 10:03:31 PM 44.0910 4.8970 350° North 445 512 40,000  Level FlightAware ADS-B
Fri 10:04:11 PM 44.1750 4.8760 350° North 454 522 40,000  Level FlightAware ADS-B
Fri 10:04:56 PM 44.2670 4.8530 350° North 455 524 40,000  Level FlightAware ADS-B
Fri 10:05:36 PM 44.3500 4.8320 350° North 455 524 40,000  Level FlightAware ADS-B
Fri 10:06:21 PM 44.4440 4.8080 350° North 460 529 40,000  Level FlightAware ADS-B
Fri 10:07:01 PM 44.5290 4.7870 350° North 461 531 40,000  Level FlightAware ADS-B
Fri 10:07:46 PM 44.6240 4.7640 350° North 457 526 40,000  Level FlightAware ADS-B
Fri 10:08:16 PM 44.6870 4.7510 352° North 458 527 40,000  Level FlightAware ADS-B
Fri 10:09:36 PM 44.8460 4.7150 351° North 458 527 40,000  Level FlightAware ADS-B
Fri 10:12:00 PM 45.1319 4.7166 North  Level Estimated
Fri 10:13:00 PM 45.2510 4.7173 North  Level Estimated
Fri 10:13:16 PM 45.3030 4.6120 North 453 521 40,000  Level FlightAware ADS-B
Fri 10:14:26 PM 45.4470 4.5790 351° North 441 507 40,000  Level FlightAware ADS-B
Fri 10:15:41 PM 45.6080 4.5420 351° North 449 517 40,000  Level FlightAware ADS-B
Fri 10:16:21 PM 45.6900 4.5230 351° North 450 518 40,000  Level FlightAware ADS-B
Fri 10:17:06 PM 45.7850 4.5010 351° North 452 520 40,000  Level FlightAware ADS-B
Fri 10:17:46 PM 45.8670 4.4840 352° North 455 524 40,000  Level FlightAware ADS-B
Fri 10:18:31 PM 45.9590 4.4650 352° North 455 524 40,000  Level FlightAware ADS-B
Fri 10:19:11 PM 46.0410 4.4480 352° North 455 524 40,000  Level FlightAware ADS-B
Fri 10:19:51 PM 46.1260 4.4300 352° North 456 525 40,000  Level FlightAware ADS-B
Fri 10:20:36 PM 46.2210 4.4100 352° North 455 524 40,000  Level FlightAware ADS-B
Fri 10:21:16 PM 46.3050 4.3920 352° North 451 519 40,000  Level FlightAware ADS-B
Fri 10:22:01 PM 46.3950 4.3730 352° North 450 518 40,000  Level FlightAware ADS-B
Fri 10:22:41 PM 46.4780 4.3550 352° North 453 521 40,000  Level FlightAware ADS-B
Fri 10:23:21 PM 46.5610 4.3380 352° North 454 522 40,000  Level FlightAware ADS-B
Fri 10:24:06 PM 46.6570 4.3170 351° North 456 525 40,000  Level FlightAware ADS-B
Fri 10:24:46 PM 46.7410 4.2990 352° North 455 524 40,000  Level FlightAware ADS-B
Fri 10:25:26 PM 46.8240 4.2810 352° North 456 525 40,000  Level FlightAware ADS-B
Fri 10:26:06 PM 46.9070 4.2630 352° North 455 524 40,000  Level FlightAware ADS-B
Fri 10:26:51 PM 46.9980 4.2430 351° North 453 521 40,000  Level FlightAware ADS-B
Fri 10:27:31 PM 47.0810 4.2250 352° North 453 521 40,000  Level FlightAware ADS-B
Fri 10:28:16 PM 47.1770 4.2040 352° North 455 524 40,000  Level FlightAware ADS-B
Fri 10:28:56 PM 47.2600 4.1860 352° North 454 522 40,000  Level FlightAware ADS-B
Fri 10:29:41 PM 47.3500 4.1660 351° North 454 522 40,000  Level FlightAware ADS-B
Fri 10:30:21 PM 47.4320 4.1620 358° North 461 531 40,000  Level FlightAware ADS-B
Fri 10:31:01 PM 47.5180 4.1620 360° North 461 531 40,000  Level FlightAware ADS-B
Fri 10:31:46 PM 47.6190 4.1610 360° North 462 532 40,000  Level FlightAware ADS-B
Fri 10:32:26 PM 47.7040 4.1610 360° North 464 534 40,000  Level FlightAware ADS-B
Fri 10:33:11 PM 47.7970 4.1600 360° North 465 535 40,000  Level FlightAware ADS-B
Fri 10:33:51 PM 47.8850 4.1600 360° North 461 531 40,000  Level FlightAware ADS-B
Fri 10:34:31 PM 47.9700 4.1590 360° North 459 528 40,000  Level FlightAware ADS-B
Fri 10:35:16 PM 48.0680 4.1590 360° North 458 527 40,000  Level FlightAware ADS-B
Fri 10:35:56 PM 48.1520 4.1580 360° North 460 529 40,000  Level FlightAware ADS-B
Fri 10:36:41 PM 48.2430 4.1580 360° North 460 529 40,000  Level FlightAware ADS-B
Fri 10:37:21 PM 48.3280 4.1570 360° North 462 532 40,000  Level FlightAware ADS-B
Fri 10:38:01 PM 48.4120 4.1560 360° North 462 532 40,000  Level FlightAware ADS-B
Fri 10:38:46 PM 48.5100 4.1560 360° North 462 532 40,000  Level FlightAware ADS-B
Fri 10:39:26 PM 48.5990 4.1550 360° North 461 531 40,000  Level FlightAware ADS-B
Fri 10:40:06 PM 48.6840 4.1550 360° North 461 531 40,000  Level FlightAware ADS-B
Fri 10:40:51 PM 48.7730 4.1540 360° North 460 529 40,000  Level FlightAware ADS-B
Fri 10:41:31 PM 48.8630 4.1540 360° North 460 529 40,000  Level FlightAware ADS-B
Fri 10:42:16 PM 48.9570 4.1530 360° North 460 529 40,000  Level FlightAware ADS-B
Fri 10:43:01 PM 49.0490 4.1520 360° North 460 529 40,000 -1,059 Level FlightAware ADS-B
Fri 10:43:41 PM 49.1455 4.1516 360° North 1 1 38,500  Descending FlightAware UK
Fri 10:43:41 PM 49.1390 4.1520 360° North 461 531 40,000  Climbing FlightAware ADS-B
Fri 10:43:59 PM 49.1835 4.1521 360° North 1 1 38,500 -2,500 Descending FlightAware UK
Fri 10:44:17 PM 49.2214 4.1505 358° North 1 1 38,500 4,091 Level FlightAware UK
Fri 10:44:21 PM 49.2250 4.1510 358° North 461 531 40,000  Climbing FlightAware ADS-B
Fri 10:44:41 PM 49.2727 4.1511 358° North 1 1 38,500 -2,368 Descending FlightAware UK
Fri 10:44:59 PM 49.3107 4.1491 358° North 1 1 38,500 3,600 Level FlightAware UK
Fri 10:45:06 PM 49.3230 4.1510 358° North 462 532 40,000  Climbing FlightAware ADS-B
Fri 10:45:22 PM 49.3606 4.1476 358° North 1 1 38,500 -2,571 Descending FlightAware UK
Fri 10:45:41 PM 49.4001 4.1468 359° North 1 1 38,500 3,750 Level FlightAware UK
Fri 10:45:46 PM 49.4080 4.1500 359° North 462 532 40,000  Climbing FlightAware ADS-B
Fri 10:46:05 PM 49.4508 4.1452 359° North 1 1 38,500 -2,432 Descending FlightAware UK
Fri 10:46:23 PM 49.4887 4.1447 359° North 1 1 38,500 4,286 Level FlightAware UK
Fri 10:46:26 PM 49.4930 4.1490 359° North 463 533 40,000  Climbing FlightAware ADS-B
Fri 10:46:41 PM 49.5278 4.1436 359° North 1 1 38,500 -2,727 Descending FlightAware UK
Fri 10:46:59 PM 49.5663 4.1436 360° North 1 1 38,500 3,000 Level FlightAware UK
Fri 10:47:11 PM 49.5870 4.1490 360° North 465 535 40,000  Climbing FlightAware ADS-B
Fri 10:47:28 PM 49.6296 4.1459 360° North 1 1 38,500 -2,571 Descending FlightAware UK
Fri 10:47:46 PM 49.6672 4.1405 355° North 1 1 38,500 3,913 Level FlightAware UK
Fri 10:47:51 PM 49.6740 4.1480 355° North 465 535 40,000  Climbing FlightAware ADS-B
Fri 10:48:11 PM 49.7202 4.1440 355° North 1 1 38,500 -2,432 Descending FlightAware UK
Fri 10:48:28 PM 49.7595 4.1472 North 1 1 38,500 3,600 Level FlightAware UK
Fri 10:48:36 PM 49.7720 4.1480 North 464 534 40,000  Climbing FlightAware ADS-B
Fri 10:48:52 PM 49.8101 4.1454 North 1 1 38,500 -2,647 Descending FlightAware UK
Fri 10:49:10 PM 49.8495 4.1479 North 1 1 38,500 3,750 Level FlightAware UK
Fri 10:49:16 PM 49.8530 4.1470 North 463 533 40,000  Climbing FlightAware ADS-B
Fri 10:49:34 PM 49.9021 4.1479 North 1 1 38,500 -2,432 Descending FlightAware UK
Fri 10:49:53 PM 49.9419 4.1475 360° North 1 1 38,500 4,091 Level FlightAware UK
Fri 10:49:56 PM 49.9430 4.1470 360° North 462 532 40,000  Climbing FlightAware ADS-B
Fri 10:50:11 PM 49.9797 4.1464 360° North 1 1 38,500 -2,727 Descending FlightAware UK
Fri 10:50:29 PM 50.0186 4.1465 360° North 1 1 38,500 3,000 Level FlightAware UK
Fri 10:50:41 PM 50.0360 4.1460 360° North 462 532 40,000  Climbing FlightAware ADS-B
Fri 10:50:59 PM 50.0817 4.1449 360° North 1 1 38,500 -2,500 Descending FlightAware UK
Fri 10:51:17 PM 50.1207 4.1471 North 1 1 38,500 4,091 Level FlightAware UK
Fri 10:51:21 PM 50.1220 4.1450 North 463 533 40,000  Climbing FlightAware ADS-B
Fri 10:51:40 PM 50.1706 4.1450 North 1 1 38,500 -2,432 Descending FlightAware UK
Fri 10:51:58 PM 50.2085 4.1445 359° North 1 1 38,500 3,462 Level FlightAware UK
Fri 10:52:06 PM 50.2150 4.1450 359° North 462 532 40,000 -1,250 Climbing FlightAware ADS-B
Fri 10:52:22 PM 50.2586 4.1419 359° North 1 1 38,000 -5,118 Descending FlightAware UK
Fri 10:52:40 PM 50.2974 4.1418 360° North 1 1 37,100 1,000 Descending FlightAware UK
Fri 10:52:46 PM 50.3050 4.1440 360° North 469 540 38,400 -2,000 Climbing FlightAware ADS-B
Fri 10:53:04 PM 50.3489 4.1404 360° North 1 1 36,300 -5,333 Descending FlightAware UK
Fri 10:53:22 PM 50.3879 4.1417 North 1 1 35,200 1,091 Descending FlightAware UK
Fri 10:53:26 PM 50.3920 4.1430 North 467 537 36,700 -2,000 Climbing FlightAware ADS-B
Fri 10:53:46 PM 50.4383 4.1392 North 1 1 34,400 -4,895 Descending FlightAware UK
Fri 10:54:04 PM 50.4772 4.1400 North 1 1 33,600 960 Descending FlightAware UK
Fri 10:54:11 PM 50.4850 4.1430 North 463 533 34,800 -3,250 Climbing FlightAware ADS-B
Fri 10:54:28 PM 50.5285 4.1406 North 1 1 32,300 -4,800 Descending FlightAware UK
Fri 10:54:46 PM 50.5667 4.1395 359° North 458 527 32,000 3,130 Descending FlightAware UK
Fri 10:54:51 PM 50.5700 4.1420 359° North 452 520 33,500 -1,250 Climbing FlightAware ADS-B
Fri 10:55:10 PM 50.6181 4.1412 359° North 448 516 31,500 -4,054 Descending FlightAware UK
Fri 10:55:28 PM 50.6559 4.1429 North 440 506 31,000 1,846 Descending FlightAware UK
Fri 10:55:36 PM 50.6650 4.1420 North 432 497 32,300 -2,400 Climbing FlightAware ADS-B
Fri 10:55:53 PM 50.7028 4.1415 North 438 504 30,000 -4,941 Descending FlightAware UK
Fri 10:56:10 PM 50.7382 4.1422 North 434 499 29,500 2,609 Descending FlightAware UK
Fri 10:56:16 PM 50.7440 4.1410 North 421 484 31,000 -1,440 Climbing FlightAware ADS-B
Fri 10:56:35 PM 50.7846 4.1413 North 426 490 28,900 -4,378 Descending FlightAware UK
Fri 10:56:53 PM 50.8179 4.1405 359° North 424 488 28,300 2,286 Descending FlightAware UK
Fri 10:56:56 PM 50.8210 4.1410 359° North 410 472 29,700 -1,750 Climbing FlightAware ADS-B
Fri 10:57:17 PM 50.8628 4.1394 359° North 420 483 27,600 -4,263 Descending FlightAware UK
Fri 10:57:34 PM 50.8941 4.1382 359° North 416 479 27,000 2,250 Descending FlightAware UK
Fri 10:57:41 PM 50.8980 4.1400 359° North 398 458 28,500 -2,000 Climbing FlightAware ADS-B
Fri 10:57:58 PM 50.9390 4.1389 359° North 412 474 26,200 -4,800 Descending FlightAware UK
Fri 10:58:16 PM 50.9709 4.1392 360° North 408 470 25,700 2,609 Descending FlightAware UK
Fri 10:58:21 PM 50.9730 4.1400 360° North 388 447 27,200 -2,000 Climbing FlightAware ADS-B
Fri 10:58:40 PM 51.0149 4.1392 360° North 402 463 24,900 -4,703 Descending FlightAware UK
Fri 10:58:58 PM 51.0465 4.1390 360° North 400 460 24,300 1,846 Descending FlightAware UK
Fri 10:59:06 PM 51.0560 4.1390 360° North 380 437 25,700 -1,750 Climbing FlightAware ADS-B
Fri 10:59:22 PM 51.0882 4.1385 360° North 394 453 23,600 -4,588 Descending FlightAware UK
Fri 10:59:40 PM 51.1194 4.1380 359° North 392 451 23,100 2,500 Descending FlightAware UK
Fri 10:59:46 PM 51.1230 4.1390 359° North 371 427 24,600 -1,500 Climbing FlightAware ADS-B
Fri 11:00:04 PM 51.1611 4.1385 359° North 388 447 22,500 -4,000 Descending FlightAware UK
Fri 11:00:22 PM 51.1900 4.1375 359° North 386 444 22,200 3,545 Descending FlightAware UK
Fri 11:00:26 PM 51.1890 4.1380 359° North 367 422 23,800 -1,000 Climbing FlightAware ADS-B
Fri 11:00:46 PM 51.2309 4.1375 359° North 388 447 21,800 -3,632 Descending FlightAware UK
Fri 11:01:04 PM 51.2614 4.1372 360° North 384 442 21,500 3,120 Descending FlightAware UK
Fri 11:01:11 PM 51.2620 4.1370 360° North 366 421 23,100 -1,000 Climbing FlightAware ADS-B
Fri 11:01:28 PM 51.3013 4.1370 360° North 384 442 21,100 -3,943 Descending FlightAware UK
Fri 11:01:46 PM 51.3316 4.1364 359° North 382 440 20,800 3,130 Descending FlightAware UK
Fri 11:01:51 PM 51.3370 4.1370 359° North 363 418 22,300 -1,000 Climbing FlightAware ADS-B
Fri 11:02:10 PM 51.3720 4.1362 359° North 380 437 20,400 -3,568 Descending FlightAware UK
Fri 11:02:28 PM 51.4017 4.1362 360° North 376 433 20,100 3,714 Descending FlightAware UK
Fri 11:02:31 PM 51.3970 4.1370 360° North 356 410 21,700 -1,000 Climbing FlightAware ADS-B
Fri 11:02:46 PM 51.4320 4.1362 360° North 376 433 19,800 -4,000 Descending FlightAware UK
Fri 11:03:04 PM 51.4622 4.1356 359° North 374 430 19,500 2,200 Descending FlightAware UK
Fri 11:03:16 PM 51.4760 4.1360 359° North 355 409 20,900 -1,000 Climbing FlightAware ADS-B
Fri 11:03:34 PM 51.5105 4.1353 359° North 372 428 19,000 -3,667 Descending FlightAware UK
Fri 11:03:52 PM 51.5399 4.1350 360° North 368 423 18,700 3,545 Descending FlightAware UK
Fri 11:03:56 PM 51.5410 4.1350 360° North 351 404 20,300 -1,000 Climbing FlightAware ADS-B
Fri 11:04:16 PM 51.5790 4.1347 360° North 366 421 18,300 -4,105 Descending FlightAware UK
Fri 11:04:34 PM 51.6087 4.1348 360° North 366 421 17,700 1,920 Descending FlightAware UK
Fri 11:04:41 PM 51.6150 4.1350 360° North 350 403 19,100 -2,000 Climbing FlightAware ADS-B
Fri 11:04:58 PM 51.6470 4.1344 360° North 360 414 16,900 -4,629 Descending FlightAware UK
Fri 11:05:16 PM 51.6762 4.1344 360° North 356 410 16,400 2,348 Descending FlightAware UK
Fri 11:05:21 PM 51.6800 4.1340 360° North 345 397 17,800 -2,000 Climbing FlightAware ADS-B
Fri 11:05:40 PM 51.7143 4.1339 360° North 352 405 15,600 -4,541 Descending FlightAware UK
Fri 11:05:58 PM 51.7427 4.1338 360° North 348 400 15,000 2,571 Descending FlightAware UK
Fri 11:06:01 PM 51.7400 4.1340 360° North 345 397 16,500 -1,667 Climbing FlightAware ADS-B
Fri 11:06:16 PM 51.7709 4.1335 360° North 346 398 14,500 -4,182 Descending FlightAware UK
Fri 11:06:34 PM 51.7991 4.1334 360° North 336 387 14,200 2,000 Descending FlightAware UK
Fri 11:06:46 PM 51.8090 4.1340 360° North 330 380 15,500 -1,800 Climbing FlightAware ADS-B
Fri 11:07:04 PM 51.8458 4.1334 360° North 330 380 13,300 -1,200 Descending FlightAware UK
Fri 11:07:21 PM 51.8580 4.1330 360° North 324 373 14,800 -316 Climbing FlightAware ADS-B
Fri 11:07:23 PM 51.8735 4.1333 360° North 318 366 13,200 -5,684 Descending FlightAware UK
Fri 11:07:40 PM 51.8978 4.1329 360° North 308 354 13,000 -1,000 Descending FlightAware UK
Fri 11:07:59 PM 51.9221 4.1322 359° North 302 348 12,600 1,548 Descending FlightAware UK
Fri 11:08:11 PM 51.9360 4.1300 359° North 300 345 13,800 -1,600 Climbing FlightAware ADS-B
Fri 11:08:29 PM 51.9645 4.1273 359° North 300 345 11,800 -4,000 Descending FlightAware UK
Fri 11:08:47 PM 51.9885 4.1240 355° North 298 343 11,400 2,727 Descending FlightAware UK
Fri 11:08:51 PM 51.9910 4.1240 355° North 298 343 12,800 -1,500 Climbing FlightAware ADS-B
Fri 11:09:11 PM 52.0223 4.1208 355° North 296 341 10,800 -3,789 Descending FlightAware UK
Fri 11:09:29 PM 52.0467 4.1182 356° North 296 341 10,400 3,300 Descending FlightAware UK
Fri 11:09:31 PM 52.0460 4.1180 356° North 293 337 11,900 -1,333 Climbing FlightAware ADS-B
Fri 11:09:47 PM 52.0704 4.1159 356° North 294 338 10,000 -1,400 Descending FlightAware UK
Fri 11:10:01 PM 52.0860 4.1300 356° North 303 349 11,200 -1,400 Climbing FlightAware ADS-B
Fri 11:10:17 PM 52.1080 4.1490 356° North 292 336 9,300 -4,059 Descending FlightAware UK
Fri 11:10:35 PM 52.1313 4.1659 24° Northeast 1 1 8,900 3,000 Descending FlightAware UK
Fri 11:10:41 PM 52.1360 4.1700 24° Northeast 294 338 10,500 -250 Climbing FlightAware ADS-B
Fri 11:10:59 PM 52.1614 4.1887 24° Northeast 1 1 8,800 -3,167 Descending FlightAware UK
Fri 11:11:17 PM 52.1823 4.2044 25° Northeast 1 1 8,600 2,889 Descending FlightAware UK
Fri 11:11:26 PM 52.1870 4.2080 25° Northeast 271 312 10,100 -750 Climbing FlightAware ADS-B
Fri 11:11:41 PM 52.2092 4.2231 25° Northeast 1 1 8,300 -800 Descending FlightAware UK
Fri 11:11:41 PM 52.2060 4.2190 25° Northeast 264 304 9,900 -1,000 Climbing FlightAware ADS-B
Fri 11:11:59 PM 52.2296 4.2189 25° Northeast 1 1 8,000 -960 Descending FlightAware UK
Fri 11:12:06 PM 52.2350 4.2230 25° Northeast 262 302 9,500 -1,000 Climbing FlightAware ADS-B
Fri 11:12:23 PM 52.2608 4.2270 25° Northeast 1 1 7,600 -1,000 Descending FlightAware UK
Fri 11:12:36 PM 52.2710 4.2280 25° Northeast 261 300 9,000 -1,000 Climbing FlightAware ADS-B
Fri 11:12:53 PM 52.2964 4.2313 25° Northeast 1 1 7,100 -1,200 Descending FlightAware UK
Fri 11:13:01 PM 52.3030 4.2320 25° Northeast 262 302 8,500 -1,000 Climbing FlightAware ADS-B
Fri 11:13:17 PM 52.3255 4.2355 25° Northeast 1 1 6,700 -1,000 Descending FlightAware UK
Fri 11:13:31 PM 52.3390 4.2370 North 260 299 8,000 -1,000 Climbing FlightAware ADS-B
Fri 11:13:35 PM 52.3467 4.2382 North 1 1 6,400 -6,750 Descending FlightAware UK
Fri 11:13:47 PM 52.3611 4.2402 North 1 1 6,200 3,429 Descending FlightAware UK
Fri 11:13:56 PM 52.3680 4.2420 North 260 299 7,600 -1,000 Climbing FlightAware ADS-B
Fri 11:14:11 PM 52.3897 4.2447 North 1 1 5,800 -600 Descending FlightAware UK
Fri 11:14:26 PM 52.4030 4.2470 North 249 287 7,300 -333 Climbing FlightAware ADS-B
Fri 11:14:29 PM 52.4112 4.2481 North 1 1 5,700 -6,400 Descending FlightAware UK
Fri 11:14:41 PM 52.4251 4.2503 North 1 1 5,700 3,111 Level FlightAware UK
Fri 11:14:56 PM 52.4370 4.2520 North 238 274 7,100 -706 Climbing FlightAware ADS-B
Fri 11:14:58 PM 52.4447 4.2533 North 1 1 5,500 -7,200 Descending FlightAware UK
Fri 11:15:11 PM 52.4581 4.2557 North 1 1 5,300 3,130 Descending FlightAware UK
Fri 11:15:21 PM 52.4650 4.2570 North 235 270 6,700 -1,034 Climbing FlightAware ADS-B
Fri 11:15:40 PM 52.4903 4.2613 North 1 1 4,800 -800 Descending FlightAware UK
Fri 11:15:51 PM 52.4980 4.2620 North 233 268 6,300 -800 Climbing FlightAware ADS-B
Fri 11:16:10 PM 52.5199 4.2660 North 1 1 4,400 -800 Descending FlightAware UK
Fri 11:16:21 PM 52.5280 4.2740 North 242 278 5,900 4,000 Climbing FlightAware ADS-B
Fri 11:16:31 PM 52.5370 4.2870 41° Northeast 249 287 5,800 -4,320 Descending FlightAware ADS-B
Fri 11:16:46 PM 52.5463 4.3154 41° Northeast 1 1 4,100 -400 Descending FlightAware UK
Fri 11:16:46 PM 52.5450 4.3100 41° Northeast 258 297 5,700 -316 Climbing FlightAware ADS-B
Fri 11:17:05 PM 52.5521 4.3511 41° Northeast 1 1 4,000 -400 Descending FlightAware UK
Fri 11:17:16 PM 52.5560 4.3680 41° Northeast 261 300 5,500  Climbing FlightAware ADS-B
Fri 11:17:35 PM 52.5656 4.4082 41° Northeast 1 1 4,000  Descending FlightAware UK
Fri 11:17:41 PM 52.5660 4.4170 41° Northeast 262 302 5,500 4,286 Climbing FlightAware ADS-B
Fri 11:17:56 PM 52.5710 4.4440 41° Northeast 263 303 5,500 -5,000 Level FlightAware ADS-B
Fri 11:17:59 PM 52.5734 4.4540 41° Northeast 1 1 4,000 -6,000 Descending FlightAware UK
Fri 11:18:11 PM 52.5772 4.4763 41° Northeast 1 1 4,000 3,333 Level FlightAware UK
Fri 11:18:26 PM 52.5820 4.5010 74° East 263 303 5,500  Climbing FlightAware ADS-B
Fri 11:18:29 PM 52.5832 4.5104 74° East 1 1 4,000 -6,000 Descending FlightAware UK
Fri 11:18:41 PM 52.5875 4.5338 74° East 1 1 4,000 5,294 Level FlightAware UK
Fri 11:18:46 PM 52.5850 4.5360 74° East 264 304 5,500 -500 Climbing FlightAware ADS-B
Fri 11:19:05 PM 52.5855 4.5828 74° East 1 1 3,800 -300 Descending FlightAware UK
Fri 11:19:06 PM 52.5840 4.5770 74° East 261 300 5,400 -333 Climbing FlightAware ADS-B
Fri 11:19:23 PM 52.5852 4.6180 74° East 1 1 3,700 -600 Descending FlightAware UK
Fri 11:19:36 PM 52.5830 4.6340 74° East 241 277 5,100 3,652 Climbing FlightAware ADS-B
Fri 11:19:46 PM 52.5800 4.6500 107° East 233 268 5,100 -480 Level FlightAware ADS-B
Fri 11:20:01 PM 52.5700 4.6710 128° Southeast 218 251 4,900 -600 Descending FlightAware ADS-B
Fri 11:20:16 PM 52.5610 4.6890 129° Southeast 208 239 4,800 -800 Descending FlightAware ADS-B
Fri 11:20:46 PM 52.5420 4.7220 133° Southeast 204 235 4,300 -1,200 Descending FlightAware ADS-B
Fri 11:20:56 PM 52.5330 4.7260 165° South 191 220 4,000 -1,650 Descending FlightAware ADS-B
Fri 11:21:26 PM 52.5080 4.7250 181° South 188 216 3,200 -1,500 Descending FlightAware ADS-B
Fri 11:21:56 PM 52.4810 4.7230 183° South 179 206 2,500 -1,200 Descending FlightAware ADS-B
Fri 11:22:21 PM 52.4600 4.7210 183° South 185 213 2,100 -982 Descending FlightAware ADS-B
Fri 11:22:51 PM 52.4340 4.7190 183° South 168 193 1,600 -873 Descending FlightAware ADS-B
Fri 11:23:16 PM 52.4160 4.7170 184° South 150 173 1,300 -764 Descending FlightAware ADS-B
Fri 11:23:46 PM 52.3960 4.7150 183° South 133 153 900 -873 Descending FlightAware ADS-B
Fri 11:24:11 PM 52.3810 4.7140 182° South 127 146 500 -764 Descending FlightAware ADS-B
Fri 11:24:41 PM 52.3650 4.7120 184° South 128 147 200 -600 Descending FlightAware ADS-B

Login

Don't have an account? Register now (free) for customized features, flight alerts, and more!